createdAt,value
2022-09-03T00:00:41.988Z,101413.44
2022-09-03T00:03:20.510Z,101414.97
2022-09-03T00:05:55.526Z,101417.66
2022-09-03T00:08:25.035Z,101411.72
2022-09-03T00:11:17.561Z,101410.28
2022-09-03T00:13:51.444Z,101408.03
2022-09-03T00:16:21.797Z,101405.00
2022-09-03T00:18:54.465Z,101399.63
2022-09-03T00:21:34.140Z,101403.28
2022-09-03T00:24:04.536Z,101392.22
2022-09-03T00:26:35.990Z,101401.00
2022-09-03T00:29:09.844Z,101393.97
2022-09-03T00:31:42.848Z,101393.97
2022-09-03T00:34:21.219Z,101397.00
2022-09-03T00:36:47.758Z,101397.53
2022-09-03T00:39:20.633Z,101387.94
2022-09-03T00:42:24.966Z,101391.88
2022-09-03T00:44:56.829Z,101393.56
2022-09-03T00:47:38.593Z,101388.47
2022-09-03T00:50:41.281Z,101385.47
2022-09-03T00:53:32.286Z,101387.16
2022-09-03T00:56:04.278Z,101381.22
2022-09-03T00:58:44.715Z,101382.94
2022-09-03T01:01:26.376Z,101384.88
2022-09-03T01:04:21.575Z,101389.53
2022-09-03T01:07:09.109Z,101388.22
2022-09-03T01:10:01.190Z,101389.47
2022-09-03T01:12:39.871Z,101390.72
2022-09-03T01:15:15.362Z,101384.38
2022-09-03T01:17:50.493Z,101378.69
2022-09-03T01:20:35.492Z,101386.88
2022-09-03T01:23:17.143Z,101392.47
2022-09-03T01:26:05.364Z,101400.66
2022-09-03T01:29:12.124Z,101394.97
2022-09-03T01:31:57.938Z,101399.47
2022-09-03T01:34:56.960Z,101393.75
2022-09-03T01:37:47.037Z,101402.28
2022-09-03T01:40:40.686Z,101400.81
2022-09-03T01:43:34.136Z,101402.19
2022-09-03T01:46:19.046Z,101389.19
2022-09-03T01:49:00.605Z,101401.97
2022-09-03T01:51:32.235Z,101392.38
2022-09-03T01:54:21.541Z,101401.84
2022-09-03T01:57:19.128Z,101400.28
2022-09-03T02:00:04.290Z,101398.97
2022-09-03T02:02:31.677Z,101400.03
2022-09-03T02:05:01.324Z,101399.06
2022-09-03T02:07:34.678Z,101397.59
2022-09-03T02:10:02.609Z,101395.31
2022-09-03T02:12:33.574Z,101393.03
2022-09-03T02:15:03.893Z,101391.72
2022-09-03T02:17:33.755Z,101388.31
2022-09-03T02:20:06.688Z,101390.59
2022-09-03T02:22:34.129Z,101393.66
2022-09-03T02:25:01.179Z,101387.59
2022-09-03T02:27:28.098Z,101384.91
2022-09-03T02:29:54.642Z,101390.25
2022-09-03T02:32:21.196Z,101378.84
2022-09-03T02:34:47.910Z,101387.00
2022-09-03T02:37:15.595Z,101388.81
2022-09-03T02:39:42.488Z,101385.66
2022-09-03T02:42:11.341Z,101384.69
2022-09-03T02:44:45.019Z,101380.69
2022-09-03T02:47:11.474Z,101378.88
2022-09-03T02:49:38.297Z,101379.97
2022-09-03T02:52:09.523Z,101377.31
2022-09-03T02:54:40.079Z,101378.03
2022-09-03T02:57:13.649Z,101380.94
2022-09-03T02:59:41.665Z,101372.06
2022-09-03T03:02:08.608Z,101373.06
2022-09-03T03:04:35.239Z,101374.88
2022-09-03T03:07:01.680Z,101374.03
2022-09-03T03:09:29.502Z,101372.06
2022-09-03T03:11:56.150Z,101371.84
2022-09-03T03:14:23.377Z,101368.31
2022-09-03T03:16:50.870Z,101375.38
2022-09-03T03:19:17.816Z,101365.41
2022-09-03T03:21:44.578Z,101359.34
2022-09-03T03:24:11.330Z,101373.06
2022-09-03T03:26:37.887Z,101365.31
2022-09-03T03:29:04.876Z,101367.75
2022-09-03T03:31:31.545Z,101376.38
2022-09-03T03:34:00.485Z,101370.91
2022-09-03T03:36:30.038Z,101365.06
2022-09-03T03:38:58.295Z,101362.66
2022-09-03T03:41:27.229Z,101366.78
2022-09-03T03:43:58.112Z,101369.56
2022-09-03T03:46:25.928Z,101362.91
2022-09-03T03:48:52.802Z,101363.28
2022-09-03T03:51:22.384Z,101365.09
2022-09-03T03:53:49.045Z,101366.78
2022-09-03T03:56:16.461Z,101370.44
2022-09-03T03:58:44.140Z,101367.28
2022-09-03T04:01:22.258Z,101364.97
2022-09-03T04:03:48.881Z,101367.53
2022-09-03T04:06:17.812Z,101371.06
2022-09-03T04:08:47.321Z,101369.34
2022-09-03T04:11:21.742Z,101370.56
2022-09-03T04:13:49.159Z,101366.56
2022-09-03T04:16:20.964Z,101376.72
2022-09-03T04:18:50.574Z,101372.56
2022-09-03T04:21:22.610Z,101362.84
2022-09-03T04:23:51.833Z,101369.53
2022-09-03T04:26:23.568Z,101374.16
2022-09-03T04:28:50.232Z,101368.94
2022-09-03T04:31:22.457Z,101367.47
2022-09-03T04:33:52.211Z,101365.78
2022-09-03T04:36:20.910Z,101369.53
2022-09-03T04:38:53.493Z,101360.91
2022-09-03T04:41:24.894Z,101363.34
2022-09-03T04:43:52.968Z,101361.53
2022-09-03T04:46:21.268Z,101367.94
2022-09-03T04:48:52.689Z,101365.03
2022-09-03T04:51:23.283Z,101361.16
2022-09-03T04:53:57.317Z,101371.97
2022-09-03T04:56:28.823Z,101369.06
2022-09-03T04:59:01.386Z,101367.47
2022-09-03T05:01:30.002Z,101364.06
2022-09-03T05:03:58.006Z,101365.03
2022-09-03T05:06:25.726Z,101362.25
2022-09-03T05:08:54.291Z,101361.53
2022-09-03T05:11:21.493Z,101359.81
2022-09-03T05:13:53.812Z,101362.00
2022-09-03T05:16:21.726Z,101356.91
2022-09-03T05:18:48.746Z,101359.34
2022-09-03T05:21:17.275Z,101357.50
2022-09-03T05:23:45.813Z,101353.88
2022-09-03T05:26:34.167Z,101342.69
2022-09-03T05:29:02.559Z,101360.91
2022-09-03T05:31:31.499Z,101360.06
2022-09-03T05:34:00.471Z,101357.16
2022-09-03T05:36:29.496Z,101365.88
2022-09-03T05:38:56.396Z,101365.16
2022-09-03T05:41:25.531Z,101361.63
2022-09-03T05:43:59.437Z,101361.75
2022-09-03T05:46:32.266Z,101361.03
2022-09-03T05:49:01.395Z,101363.84
2022-09-03T05:51:29.123Z,101368.69
2022-09-03T05:53:55.855Z,101370.16
2022-09-03T05:56:24.519Z,101358.25
2022-09-03T05:58:53.746Z,101358.97
2022-09-03T06:01:23.259Z,101361.31
2022-09-03T06:03:58.346Z,101362.44
2022-09-03T06:06:27.121Z,101359.16
2022-09-03T06:08:55.408Z,101351.97
2022-09-03T06:11:28.073Z,101361.94
2022-09-03T06:13:56.703Z,101360.94
2022-09-03T06:16:30.652Z,101359.47
2022-09-03T06:19:01.687Z,101363.59
2022-09-03T06:21:29.509Z,101368.19
2022-09-03T06:23:59.483Z,101367.06
2022-09-03T06:26:29.326Z,101373.47
2022-09-03T06:28:56.821Z,101373.09
2022-09-03T06:31:24.865Z,101373.06
2022-09-03T06:33:53.018Z,101374.13
2022-09-03T06:36:25.079Z,101378.59
2022-09-03T06:38:53.584Z,101381.34
2022-09-03T06:41:25.931Z,101379.22
2022-09-03T06:43:55.630Z,101365.44
2022-09-03T06:46:23.948Z,101372.94
2022-09-03T06:48:51.624Z,101358.91
2022-09-03T06:51:23.759Z,101367.25
2022-09-03T06:53:52.848Z,101364.03
2022-09-03T06:56:27.423Z,101362.25
2022-09-03T06:58:59.379Z,101367.63
2022-09-03T07:01:31.195Z,101374.41
2022-09-03T07:04:00.967Z,101368.50
2022-09-03T07:06:33.070Z,101371.66
2022-09-03T07:09:00.168Z,101374.78
2022-09-03T07:11:29.277Z,101380.88
2022-09-03T07:13:56.234Z,101381.22
2022-09-03T07:16:29.726Z,101376.69
2022-09-03T07:18:57.153Z,101367.81
2022-09-03T07:21:26.047Z,101377.72
2022-09-03T07:23:53.795Z,101372.06
2022-09-03T07:26:26.376Z,101379.97
2022-09-03T07:28:54.217Z,101374.91
2022-09-03T07:31:26.035Z,101376.44
2022-09-03T07:33:57.310Z,101365.72
2022-09-03T07:36:27.212Z,101375.59
2022-09-03T07:38:59.091Z,101367.41
2022-09-03T07:41:28.245Z,101374.34
2022-09-03T07:43:55.763Z,101372.81
2022-09-03T07:46:24.622Z,101373.81
2022-09-03T07:48:55.449Z,101378.91
2022-09-03T07:51:26.554Z,101379.78
2022-09-03T07:53:56.043Z,101380.97
2022-09-03T07:56:22.980Z,101386.47
2022-09-03T07:58:55.233Z,101389.28
2022-09-03T08:01:24.049Z,101384.34
2022-09-03T08:03:53.174Z,101389.47
2022-09-03T08:06:24.802Z,101375.19
2022-09-03T08:09:02.171Z,101375.63
2022-09-03T08:11:31.542Z,101380.31
2022-09-03T08:14:02.551Z,101376.91
2022-09-03T08:16:31.521Z,101380.31
2022-09-03T08:18:59.059Z,101376.63
2022-09-03T08:21:26.864Z,101380.16
2022-09-03T08:23:54.771Z,101386.50
2022-09-03T08:26:22.220Z,101387.31
2022-09-03T08:28:49.719Z,101392.25
2022-09-03T08:31:19.973Z,101395.34
2022-09-03T08:33:52.212Z,101389.53
2022-09-03T08:36:24.565Z,101389.69
2022-09-03T08:38:55.111Z,101388.09
2022-09-03T08:41:46.515Z,101393.88
2022-09-03T08:44:51.824Z,101392.28
2022-09-03T08:47:59.995Z,101390.84
2022-09-03T08:50:35.537Z,101392.19
2022-09-03T08:53:20.212Z,101392.28
2022-09-03T08:56:07.393Z,101390.41
2022-09-03T08:58:38.333Z,101398.72
2022-09-03T09:01:27.824Z,101396.63
2022-09-03T09:04:05.869Z,101394.03
2022-09-03T09:06:40.384Z,101389.03
2022-09-03T09:09:26.665Z,101393.81
2022-09-03T09:11:55.900Z,101387.00
2022-09-03T09:14:36.947Z,101394.78
2022-09-03T09:17:28.159Z,101393.16
2022-09-03T09:20:09.402Z,101381.63
2022-09-03T09:22:47.421Z,101395.47
2022-09-03T09:25:18.772Z,101394.16
2022-09-03T09:27:51.962Z,101389.00
2022-09-03T09:30:19.987Z,101385.25
2022-09-03T09:32:47.255Z,101371.84
2022-09-03T09:35:18.888Z,101376.59
2022-09-03T09:37:57.030Z,101376.13
2022-09-03T09:40:35.144Z,101371.25
2022-09-03T09:43:10.932Z,101374.00
2022-09-03T09:45:43.506Z,101382.19
2022-09-03T09:48:24.002Z,101377.47
2022-09-03T09:50:50.658Z,101374.78
2022-09-03T09:53:21.484Z,101379.91
2022-09-03T09:55:58.108Z,101375.13
2022-09-03T09:58:30.891Z,101381.41
2022-09-03T10:01:04.090Z,101382.44
2022-09-03T10:03:35.626Z,101373.34
2022-09-03T10:06:32.504Z,101378.09
2022-09-03T10:09:12.118Z,101368.19
2022-09-03T10:11:42.949Z,101371.75
2022-09-03T10:14:24.450Z,101369.75
2022-09-03T10:16:59.591Z,101373.31
2022-09-03T10:19:40.281Z,101369.81
2022-09-03T10:22:17.950Z,101359.88
2022-09-03T10:24:59.132Z,101361.28
2022-09-03T10:27:25.942Z,101357.41
2022-09-03T10:29:53.409Z,101366.53
2022-09-03T10:32:36.911Z,101365.38
2022-09-03T10:35:21.968Z,101364.88
2022-09-03T10:38:02.836Z,101361.50
2022-09-03T10:40:35.128Z,101359.66
2022-09-03T10:43:44.927Z,101362.56
2022-09-03T10:46:20.621Z,101362.38
2022-09-03T10:49:30.074Z,101354.94
2022-09-03T10:52:08.941Z,101352.03
2022-09-03T10:54:44.635Z,101349.97
2022-09-03T10:57:20.607Z,101354.19
2022-09-03T10:59:56.220Z,101348.59
2022-09-03T11:02:29.062Z,101349.09
2022-09-03T11:05:19.624Z,101345.19
2022-09-03T11:07:54.116Z,101345.50
2022-09-03T11:10:33.281Z,101340.75
2022-09-03T11:13:09.649Z,101341.88
2022-09-03T11:15:51.661Z,101340.28
2022-09-03T11:18:25.878Z,101339.09
2022-09-03T11:20:57.217Z,101344.50
2022-09-03T11:23:25.654Z,101338.00
2022-09-03T11:25:57.597Z,101347.13
2022-09-03T11:28:52.104Z,101341.34
2022-09-03T11:31:57.743Z,101336.22
2022-09-03T11:34:32.543Z,101335.56
2022-09-03T11:37:22.014Z,101326.69
2022-09-03T11:40:04.316Z,101335.25
2022-09-03T11:42:36.838Z,101329.84
2022-09-03T11:45:21.550Z,101326.94
2022-09-03T11:47:52.372Z,101329.59
2022-09-03T11:50:22.133Z,101322.50
2022-09-03T11:52:51.761Z,101316.47
2022-09-03T11:55:37.590Z,101319.19
2022-09-03T11:58:36.396Z,101312.44
2022-09-03T12:01:09.025Z,101315.53
2022-09-03T12:04:03.539Z,101321.81
2022-09-03T12:06:45.849Z,101318.72
2022-09-03T12:09:31.305Z,101317.06
2022-09-03T12:12:16.301Z,101322.00
2022-09-03T12:15:04.163Z,101314.81
2022-09-03T12:18:10.861Z,101317.88
2022-09-03T12:20:37.623Z,101309.66
2022-09-03T12:23:04.182Z,101315.34
2022-09-03T12:25:30.830Z,101315.00
2022-09-03T12:28:01.308Z,101320.72
2022-09-03T12:30:30.342Z,101316.31
2022-09-03T12:33:07.951Z,101319.09
2022-09-03T12:38:26.155Z,101311.75
2022-09-03T12:43:42.407Z,101318.50
2022-09-03T12:46:16.041Z,101324.31
2022-09-03T12:51:52.162Z,101312.03
2022-09-03T12:54:21.339Z,101312.22
2022-09-03T12:57:00.158Z,101314.00
2022-09-03T12:59:31.726Z,101313.31
2022-09-03T13:02:12.829Z,101314.59
2022-09-03T13:04:41.246Z,101310.59
2022-09-03T13:07:33.528Z,101315.09
2022-09-03T13:10:07.815Z,101315.88
2022-09-03T13:12:53.463Z,101301.34
2022-09-03T13:15:23.863Z,101309.56
2022-09-03T13:18:07.765Z,101306.84
2022-09-03T13:20:34.786Z,101313.88
2022-09-03T13:23:20.982Z,101315.84
2022-09-03T13:25:53.856Z,101316.22
2022-09-03T13:28:29.809Z,101306.25
2022-09-03T13:31:34.032Z,101308.91
2022-09-03T13:34:09.482Z,101309.88
2022-09-03T13:36:49.026Z,101307.59
2022-09-03T13:39:18.729Z,101295.34
2022-09-03T13:41:58.112Z,101300.97
2022-09-03T13:44:38.139Z,101300.59
2022-09-03T13:47:25.839Z,101295.53
2022-09-03T13:50:37.231Z,101288.91
2022-09-03T13:53:22.722Z,101296.38
2022-09-03T13:55:54.735Z,101294.69
2022-09-03T13:58:44.939Z,101295.34
2022-09-03T14:01:37.046Z,101298.00
2022-09-03T14:04:03.801Z,101300.97
2022-09-03T14:06:50.764Z,101290.44
2022-09-03T14:09:35.524Z,101289.06
2022-09-03T14:12:25.130Z,101290.78
2022-09-03T14:15:29.670Z,101289.31
2022-09-03T14:18:28.889Z,101289.00
2022-09-03T14:20:58.773Z,101284.94
2022-09-03T14:23:59.692Z,101290.88
2022-09-03T14:26:39.586Z,101300.44
2022-09-03T14:29:12.653Z,101294.50
2022-09-03T14:31:52.047Z,101295.06
2022-09-03T14:34:31.225Z,101302.13
2022-09-03T14:37:21.245Z,101298.81
2022-09-03T14:40:13.464Z,101293.19
2022-09-03T14:43:10.561Z,101295.41
2022-09-03T14:45:53.540Z,101293.50
2022-09-03T14:48:29.221Z,101295.09
2022-09-03T14:50:58.860Z,101294.63
2022-09-03T14:54:06.964Z,101283.94
2022-09-03T14:57:13.281Z,101284.16
2022-09-03T14:59:49.125Z,101287.91
2022-09-03T15:02:34.187Z,101292.38
2022-09-03T15:05:11.807Z,101283.22
2022-09-03T15:07:56.216Z,101290.97
2022-09-03T15:10:37.609Z,101303.38
2022-09-03T15:13:17.665Z,101292.94
2022-09-03T15:16:12.959Z,101279.09
2022-09-03T15:19:16.341Z,101293.50
2022-09-03T15:22:11.965Z,101296.56
2022-09-03T15:25:17.297Z,101296.63
2022-09-03T15:28:00.644Z,101298.94
2022-09-03T15:30:37.055Z,101302.50
2022-09-03T15:33:17.725Z,101296.47
2022-09-03T15:36:14.977Z,101299.00
2022-09-03T15:38:51.684Z,101300.81
2022-09-03T15:41:49.073Z,101302.59
2022-09-03T15:44:20.014Z,101310.38
2022-09-03T15:47:05.283Z,101304.72
2022-09-03T15:49:53.014Z,101304.97
2022-09-03T15:52:32.108Z,101304.88
2022-09-03T15:55:15.353Z,101305.00
2022-09-03T15:57:54.648Z,101316.56
2022-09-03T16:00:22.660Z,101313.06
2022-09-03T16:02:58.960Z,101313.63
2022-09-03T16:05:39.341Z,101310.09
2022-09-03T16:08:14.812Z,101310.97
2022-09-03T16:11:09.661Z,101313.97
2022-09-03T16:13:54.636Z,101305.00
2022-09-03T16:16:31.821Z,101304.16
2022-09-03T16:19:21.725Z,101314.88
2022-09-03T16:22:22.355Z,101315.66
2022-09-03T16:25:05.970Z,101305.00
2022-09-03T16:27:38.361Z,101320.69
2022-09-03T16:30:21.619Z,101317.03
2022-09-03T16:33:01.665Z,101319.19
2022-09-03T16:35:55.206Z,101317.50
2022-09-03T16:38:49.048Z,101313.53
2022-09-03T16:41:26.356Z,101313.53
2022-09-03T16:44:10.036Z,101317.44
2022-09-03T16:47:06.448Z,101328.09
2022-09-03T16:49:42.806Z,101313.63
2022-09-03T16:52:38.247Z,101319.47
2022-09-03T16:55:30.562Z,101323.03
2022-09-03T16:58:25.029Z,101316.84
2022-09-03T17:01:21.028Z,101321.47
2022-09-03T17:04:09.231Z,101321.16
2022-09-03T17:06:54.824Z,101326.31
2022-09-03T17:09:38.309Z,101320.78
2022-09-03T17:12:10.951Z,101327.22
2022-09-03T17:15:03.290Z,101317.78
2022-09-03T17:17:35.571Z,101325.72
2022-09-03T17:20:29.671Z,101322.75
2022-09-03T17:23:13.051Z,101325.31
2022-09-03T17:25:46.867Z,101328.75
2022-09-03T17:28:27.363Z,101334.19
2022-09-03T17:31:16.084Z,101328.63
2022-09-03T17:34:14.374Z,101336.09
2022-09-03T17:36:56.576Z,101333.22
2022-09-03T17:39:53.548Z,101336.25
2022-09-03T17:42:33.164Z,101339.16
2022-09-03T17:45:25.782Z,101344.09
2022-09-03T17:48:11.508Z,101346.97
2022-09-03T17:51:01.488Z,101345.31
2022-09-03T17:53:38.255Z,101357.31
2022-09-03T17:56:11.865Z,101354.28
2022-09-03T17:58:41.265Z,101364.94
2022-09-03T18:01:17.105Z,101354.75
2022-09-03T18:03:54.810Z,101372.13
2022-09-03T18:06:28.337Z,101376.88
2022-09-03T18:09:06.014Z,101379.41
2022-09-03T18:11:41.909Z,101388.66
2022-09-03T18:14:23.661Z,101392.53
2022-09-03T18:17:11.837Z,101392.19
2022-09-03T18:20:11.340Z,101391.31
2022-09-03T18:23:08.871Z,101400.94
2022-09-03T18:25:56.876Z,101399.50
2022-09-03T18:28:55.725Z,101397.09
2022-09-03T18:31:41.025Z,101405.66
2022-09-03T18:34:27.395Z,101409.88
2022-09-03T18:37:17.065Z,101415.72
2022-09-03T18:40:08.172Z,101416.84
2022-09-03T18:43:07.793Z,101420.97
2022-09-03T18:47:16.130Z,101425.97
2022-09-03T18:49:32.311Z,101434.00
2022-09-03T18:52:29.561Z,101426.88
2022-09-03T18:55:27.015Z,101437.25
2022-09-03T18:58:44.713Z,101439.72
2022-09-03T19:01:54.025Z,101439.97
2022-09-03T19:04:57.984Z,101448.13
2022-09-03T19:08:01.554Z,101448.75
2022-09-03T19:10:57.061Z,101460.44
2022-09-03T19:13:41.913Z,101456.66
2022-09-03T19:16:46.797Z,101460.97
2022-09-03T19:19:53.546Z,101459.56
2022-09-03T19:22:50.149Z,101458.50
2022-09-03T19:25:35.629Z,101459.94
2022-09-03T19:28:35.585Z,101454.88
2022-09-03T19:31:36.372Z,101465.25
2022-09-03T19:34:43.025Z,101462.28
2022-09-03T19:37:37.204Z,101463.03
2022-09-03T19:40:40.551Z,101471.00
2022-09-03T19:43:53.646Z,101471.44
2022-09-03T19:47:00.686Z,101478.94
2022-09-03T19:50:23.709Z,101477.41
2022-09-03T19:53:14.452Z,101475.44
2022-09-03T19:56:12.966Z,101473.34
2022-09-03T19:59:05.527Z,101481.88
2022-09-03T20:01:54.902Z,101482.31
2022-09-03T20:04:50.677Z,101475.38
2022-09-03T20:07:37.784Z,101487.03
2022-09-03T20:10:23.736Z,101495.38
2022-09-03T20:13:03.515Z,101502.19
2022-09-03T20:15:50.366Z,101503.06
2022-09-03T20:18:30.747Z,101484.75
2022-09-03T20:21:25.223Z,101491.72
2022-09-03T20:24:11.290Z,101496.66
2022-09-03T20:26:46.221Z,101495.53
2022-09-03T20:29:43.778Z,101493.13
2022-09-03T20:32:31.695Z,101495.81
2022-09-03T20:35:07.916Z,101500.47
2022-09-03T20:37:59.019Z,101496.38
2022-09-03T20:40:34.770Z,101510.69
2022-09-03T20:43:58.602Z,101513.66
2022-09-03T20:47:00.492Z,101512.09
2022-09-03T20:49:54.595Z,101513.50
2022-09-03T20:52:45.790Z,101482.53
2022-09-03T20:55:12.875Z,101516.06
2022-09-03T20:57:54.830Z,101520.16
2022-09-03T21:00:23.333Z,101522.00
2022-09-03T21:03:17.290Z,101514.50
2022-09-03T21:06:06.764Z,101524.13
2022-09-03T21:08:50.626Z,101522.69
2022-09-03T21:11:30.528Z,101524.41
2022-09-03T21:14:14.621Z,101515.72
2022-09-03T21:17:18.833Z,101517.28
2022-09-03T21:20:05.495Z,101531.25
2022-09-03T21:23:07.343Z,101526.75
2022-09-03T21:25:40.875Z,101519.25
2022-09-03T21:28:38.502Z,101532.66
2022-09-03T21:31:38.531Z,101504.03
2022-09-03T21:34:12.984Z,101520.00
2022-09-03T21:36:43.482Z,101497.06
2022-09-03T21:39:15.313Z,101526.19
2022-09-03T21:41:52.536Z,101500.84
2022-09-03T21:44:39.345Z,101534.25
2022-09-03T21:47:10.238Z,101534.81
2022-09-03T21:50:11.966Z,101534.28
2022-09-03T21:53:09.469Z,101538.53
2022-09-03T21:56:08.225Z,101529.75
2022-09-03T21:58:57.693Z,101541.34
2022-09-03T22:01:30.017Z,101530.16
2022-09-03T22:03:56.496Z,101541.19
2022-09-03T22:06:35.037Z,101541.91
2022-09-03T22:09:19.101Z,101545.69
2022-09-03T22:12:08.709Z,101543.16
2022-09-03T22:14:50.140Z,101539.44
2022-09-03T22:17:36.178Z,101538.16
2022-09-03T22:20:05.332Z,101549.34
2022-09-03T22:22:40.922Z,101539.31
2022-09-03T22:25:40.541Z,101538.75
2022-09-03T22:28:17.744Z,101541.16
2022-09-03T22:30:59.015Z,101546.78
2022-09-03T22:33:33.161Z,101546.91
2022-09-03T22:36:11.575Z,101539.28
2022-09-03T22:38:50.730Z,101545.88
2022-09-03T22:41:53.054Z,101543.19
2022-09-03T22:44:43.972Z,101550.38
2022-09-03T22:47:53.252Z,101538.34
2022-09-03T22:50:26.873Z,101544.25
2022-09-03T22:52:59.320Z,101550.66
2022-09-03T22:55:26.575Z,101541.16
2022-09-03T22:58:14.029Z,101548.81
2022-09-03T23:00:47.019Z,101541.03
2022-09-03T23:03:25.388Z,101538.16
2022-09-03T23:06:05.669Z,101552.31
2022-09-03T23:08:39.413Z,101552.84
2022-09-03T23:11:12.816Z,101562.25
2022-09-03T23:13:49.012Z,101551.22
2022-09-03T23:16:48.849Z,101564.94
2022-09-03T23:21:58.608Z,101571.34
2022-09-03T23:24:30.619Z,101574.63
2022-09-03T23:27:00.968Z,101570.09
2022-09-03T23:29:41.164Z,101575.72
2022-09-03T23:32:09.399Z,101570.91
2022-09-03T23:34:36.589Z,101567.91
2022-09-03T23:37:42.171Z,101575.50
2022-09-03T23:40:47.966Z,101577.44
2022-09-03T23:43:36.404Z,101578.81
2022-09-03T23:46:25.738Z,101577.25
2022-09-03T23:49:14.055Z,101582.50
2022-09-03T23:52:21.430Z,101576.53
2022-09-03T23:54:53.686Z,101576.81
2022-09-03T23:57:32.088Z,101580.94
